Indiana Highway — JMVS — position and weather

sailwx.info

Track history (hours):
 
Tides and Currents Weather Stations Pressure Air Temp Water Temp Dewpoint Dewpoint Depression Visibility Wind Speed Wind Dir Waves Ship Positions

Indiana Highway

Last reported at 2018-Apr-13 10:11 UTC. Time now 2018-Apr-22 16:26 UTC.
Position N 37°30' W 123°17'.
Warning: this ship's position is 9 days out of date.

Length 199.9 m; beam 32.2 m.

Type: Cargo ship. MMSI: 432433000.

Date/timePositionNaut miles runAvg speedWind from/ knotsBaromVisibWave heightAir tempDewpointWater temp
2018-Apr-13 10:11N 37°30' W 123°17'314.5
2018-Apr-13 09:58N 37°31' W 123°14'714.5
2018-Apr-13 09:30N 37°34' W 123°06'815.5
2018-Apr-13 09:00N 37°38' W 122°57'815.4
2018-Apr-13 08:30N 37°42' W 122°49'612.6
2018-Apr-13 08:00N 37°44' W 122°42'4 7.3
2018-Apr-13 07:30N 37°46' W 122°38'713.4
2018-Apr-13 07:00N 37°49' W 122°30'510.7
2018-Apr-13 06:30N 37°53' W 122°25'612.2
2018-Apr-13 06:00N 37°59' W 122°26'612.2
2018-Apr-13 05:30N 38°03' W 122°20'4 8.9
2018-Apr-13 05:00N 38°04' W 122°15'4 7.3
2018-Apr-13 04:29N 38°02' W 122°10'2 2.9
2018-Apr-13 03:57N 38°02' W 122°08'0 0.0
2018-Apr-13 03:27N 38°02' W 122°08'0 0.0
2018-Apr-13 02:57N 38°02' W 122°08'0 0.0
2018-Apr-13 02:15N 38°02' W 122°08'0 0.0
2018-Apr-13 01:57N 38°02' W 122°08'0 0.0
2018-Apr-12 23:27N 38°02' W 122°08'0 0.0
2018-Apr-12 21:27N 38°02' W 122°08'0 0.0
2018-Apr-12 20:57N 38°02' W 122°08'0 0.0
2018-Apr-12 18:51N 38°02' W 122°08'0 0.0
2018-Apr-12 18:27N 38°02' W 122°08'0 0.0
2018-Apr-12 17:57N 38°02' W 122°08'0 0.0
2018-Apr-12 14:09N 38°02' W 122°08'0 0.0
2018-Apr-12 13:51N 38°02' W 122°08'0 0.0
2018-Apr-12 13:27N 38°02' W 122°08'0 0.0
2018-Apr-12 12:57N 38°02' W 122°08'0 0.0
2018-Apr-12 12:21N 38°02' W 122°08'0 0.0
2018-Apr-12 11:57N 38°02' W 122°08'0 0.0
2018-Apr-12 11:27N 38°02' W 122°08'0 0.0
2018-Apr-12 10:57N 38°02' W 122°08'0 0.0
2018-Apr-12 10:27N 38°02' W 122°08'0 0.0
2018-Apr-12 09:27N 38°02' W 122°08'0 0.0
2018-Apr-12 08:15N 38°02' W 122°08'0 0.0
2018-Apr-12 07:57N 38°02' W 122°08'0 0.0
2018-Apr-12 07:21N 38°02' W 122°08'0 0.0
2018-Apr-12 06:51N 38°02' W 122°08'0 0.1
2018-Apr-12 06:31N 38°02' W 122°08'1 1.7
2018-Apr-12 06:00N 38°02' W 122°09'510.6
2018-Apr-12 05:31N 38°04' W 122°15'815.1
2018-Apr-12 05:00N 38°01' W 122°24'714.4
2018-Apr-12 04:30N 37°54' W 122°26'4 8.1
2018-Apr-12 04:00N 37°50' W 122°28'713.8
2018-Apr-12 03:30N 37°47' W 122°35'5 9.6
2018-Apr-12 03:00N 37°43' W 122°40'5 9.5
2018-Apr-12 02:30N 37°39' W 122°40'510.0
2018-Apr-12 02:01N 37°34' W 122°40'510.0
2018-Apr-12 01:30N 37°29' W 122°40'611.1
2018-Apr-12 01:00N 37°23' W 122°40'611.1
2018-Apr-12 00:30N 37°18' W 122°40'612.1
2018-Apr-12 00:00N 37°12' W 122°38'713.8
2018-Apr-11 23:30N 37°05' W 122°36'713.0
2018-Apr-11 23:00N 36°59' W 122°34'713.0
2018-Apr-11 22:30N 36°53' W 122°31'4412.6
2018-Apr-11 19:01N 36°12' W 122°10'0 9.5
2018-Apr-11 18:59N 36°12' W 122°09'3 6.4
2018-Apr-11 18:29N 36°09' W 122°08'612.6
2018-Apr-11 18:00N 36°04' W 122°04'713.5
2018-Apr-11 17:30N 35°58' W 121°60'3814.5
2018-Apr-11 14:51N 35°25' W 121°35'515.5
2018-Apr-11 14:30N 35°20' W 121°32'815.6
2018-Apr-11 14:00N 35°14' W 121°27'815.8
2018-Apr-11 13:30N 35°07' W 121°22'815.9
2018-Apr-11 13:00N 35°00' W 121°17'816.2
2018-Apr-11 12:30N 34°53' W 121°12'916.1
2018-Apr-11 11:58N 34°46' W 121°06'716.1
2018-Apr-11 11:30N 34°40' W 121°02'816.4
2018-Apr-11 11:00N 34°32' W 120°57'815.1
2018-Apr-11 10:28N 34°26' W 120°51'816.8
2018-Apr-11 09:59N 34°24' W 120°41'816.9
2018-Apr-11 09:30N 34°22' W 120°32'816.4
2018-Apr-11 09:00N 34°19' W 120°22'816.8
2018-Apr-11 08:30N 34°17' W 120°12'916.8
2018-Apr-11 07:58N 34°15' W 120°02'716.5
2018-Apr-11 07:30N 34°13' W 119°53'816.4
2018-Apr-11 07:00N 34°11' W 119°43'816.7
2018-Apr-11 06:30N 34°08' W 119°34'816.3
2018-Apr-11 06:00N 34°06' W 119°24'916.9
2018-Apr-11 05:28N 34°04' W 119°14'816.7
2018-Apr-11 05:00N 33°60' W 119°06'712.5
2018-Apr-11 04:29N 33°56' W 118°59'611.9
2018-Apr-11 04:00N 33°54' W 118°53'612.0
2018-Apr-11 03:30N 33°51' W 118°46'612.0
2018-Apr-11 03:00N 33°48' W 118°40'612.3
2018-Apr-11 02:30N 33°45' W 118°34'612.0
2018-Apr-11 02:00N 33°42' W 118°28'611.7
2018-Apr-11 01:30N 33°39' W 118°21'510.4
2018-Apr-11 01:00N 33°38' W 118°15'5 9.3
2018-Apr-11 00:30N 33°41' W 118°11'4 7.3
2018-Apr-11 00:00N 33°45' W 118°13'2 3.2
2018-Apr-10 23:30N 33°46' W 118°13'0 0.1
2018-Apr-10 22:59N 33°46' W 118°13'0 0.0
2018-Apr-10 22:29N 33°46' W 118°13'0 0.0
2018-Apr-10 21:59N 33°46' W 118°13'0 0.0
2018-Apr-10 21:29N 33°46' W 118°13'0 0.0
2018-Apr-10 20:59N 33°46' W 118°13'0 0.0
2018-Apr-10 20:29N 33°46' W 118°13'0 0.0
2018-Apr-10 19:59N 33°46' W 118°13'0 0.0
2018-Apr-10 19:29N 33°46' W 118°13'0 0.0
2018-Apr-10 18:59N 33°46' W 118°13'0 0.0
2018-Apr-10 18:29N 33°46' W 118°13'0 0.0
2018-Apr-10 17:59N 33°46' W 118°13'0 0.0
2018-Apr-10 17:29N 33°46' W 118°13'0 0.0
2018-Apr-10 16:59N 33°46' W 118°13'0 0.0
2018-Apr-10 16:29N 33°46' W 118°13'0 0.0
2018-Apr-10 15:59N 33°46' W 118°13'0 0.0
2018-Apr-10 15:29N 33°46' W 118°13'0 0.0
2018-Apr-10 14:59N 33°46' W 118°13'0 0.0
2018-Apr-10 14:29N 33°46' W 118°13'0 0.0
2018-Apr-10 13:59N 33°46' W 118°13'0 0.0
2018-Apr-10 13:29N 33°46' W 118°13'0 0.0
2018-Apr-10 12:59N 33°46' W 118°13'0 0.0
2018-Apr-10 12:29N 33°46' W 118°13'0 0.0
2018-Apr-10 11:59N 33°46' W 118°13'0 0.0
2018-Apr-10 11:29N 33°46' W 118°13'0 0.0
2018-Apr-10 10:59N 33°46' W 118°13'0 0.0
2018-Apr-10 10:29N 33°46' W 118°13'0 0.0
2018-Apr-10 09:59N 33°46' W 118°13'0 0.0
2018-Apr-10 09:29N 33°46' W 118°13'0 0.0
2018-Apr-10 08:59N 33°46' W 118°13'0 0.0
2018-Apr-10 08:29N 33°46' W 118°13'0 0.0
2018-Apr-10 07:59N 33°46' W 118°13'0 0.0
2018-Apr-10 07:29N 33°46' W 118°13'0 0.4
2018-Apr-10 07:00N 33°46' W 118°13'1 2.3
2018-Apr-10 06:30N 33°45' W 118°13'4 7.6
2018-Apr-10 06:00N 33°42' W 118°11'4 8.5
2018-Apr-10 05:30N 33°38' W 118°12'3 6.3
2018-Apr-10 05:00N 33°36' W 118°16'3 5.4
2018-Apr-10 04:30N 33°36' W 118°19'3 5.5
2018-Apr-10 04:00N 33°37' W 118°22'3 5.7
2018-Apr-10 03:30N 33°38' W 118°25'3 5.8
2018-Apr-10 03:00N 33°40' W 118°28'3 6.1
2018-Apr-10 02:30N 33°41' W 118°31'3 6.7
2018-Apr-10 02:00N 33°43' W 118°35'3 6.6
2018-Apr-10 01:30N 33°44' W 118°38'3 5.2
2018-Apr-10 01:00N 33°45' W 118°41'3 5.4
2018-Apr-10 00:30N 33°45' W 118°45'3 5.2
2018-Apr-09 23:58N 33°45' W 118°48'3 5.4
2018-Apr-09 23:30N 33°45' W 118°51'3 5.3
2018-Apr-09 23:00N 33°45' W 118°54'3 5.5
2018-Apr-09 22:30N 33°44' W 118°57'3 5.5
2018-Apr-09 22:00N 33°44' W 119°01'3 5.5
2018-Apr-09 21:30N 33°44' W 119°04'3 5.7
2018-Apr-09 21:00N 33°44' W 119°07'3 6.2
2018-Apr-09 20:30N 33°43' W 119°11'3 4.8
2018-Apr-09 19:58N 33°43' W 119°14'4 7.7
2018-Apr-09 19:27N 33°42' W 119°19'4 7.8
2018-Apr-09 18:59N 33°42' W 119°23'4 7.7
2018-Apr-09 18:30N 33°41' W 119°28'4 7.7
2018-Apr-09 17:57N 33°41' W 119°33'3 7.4
2018-Apr-09 17:30N 33°40' W 119°37'4 7.3
2018-Apr-09 17:00N 33°40' W 119°41'4 8.2
2018-Apr-09 16:30N 33°39' W 119°46'510.2
2018-Apr-09 15:59N 33°38' W 119°52'511.1
2018-Apr-09 15:30N 33°37' W 119°58'713.5
2018-Apr-09 15:00N 33°36' W 120°06'815.6
2018-Apr-09 14:30N 33°36' W 120°16'815.4
2018-Apr-09 14:00N 33°36' W 120°25'815.4
2018-Apr-09 13:30N 33°36' W 120°34'815.2
2018-Apr-09 13:00N 33°36' W 120°43'715.0
2018-Apr-09 12:30N 33°36' W 120°52'714.4
2018-Apr-09 12:00N 33°36' W 121°01'714.6
2018-Apr-09 11:30N 33°36' W 121°10'714.9
2018-Apr-09 11:00N 33°36' W 121°19'714.6
2018-Apr-09 10:29N 33°36' W 121°28'714.4
2018-Apr-09 10:00N 33°36' W 121°36'714.0
2018-Apr-09 09:31N 33°36' W 121°44'714.2
2018-Apr-09 08:59N 33°36' W 121°53'714.4
2018-Apr-09 08:30N 33°37' W 122°02'714.2
2018-Apr-09 08:00N 33°37' W 122°10'714.3
2018-Apr-09 07:30N 33°37' W 122°19'714.6
2018-Apr-09 07:00N 33°37' W 122°27'914.7
2018-Apr-09 06:25N 33°37' W 122°38'614.5
2018-Apr-09 06:00N 33°37' W 122°45'714.6
2018-Apr-09 05:30N 33°37' W 122°54'  
Track history (hours):
 
Tides and Currents Weather Stations Pressure Air Temp Water Temp Dewpoint Dewpoint Depression Visibility Wind Speed Wind Dir Waves Ship Positions

Indiana Highway

Last reported at 2018-Apr-13 10:11 UTC. Time now 2018-Apr-22 16:26 UTC.
Position N 37°30' W 123°17'.
Warning: this ship's position is 9 days out of date.

Length 199.9 m; beam 32.2 m.

Type: Cargo ship. MMSI: 432433000.

Date/timePositionNaut miles runAvg speedWind from/ knotsBaromVisibWave heightAir tempDewpointWater temp
2018-Apr-13 10:11N 37°30' W 123°17'314.5
2018-Apr-13 09:58N 37°31' W 123°14'714.5
2018-Apr-13 09:30N 37°34' W 123°06'815.5
2018-Apr-13 09:00N 37°38' W 122°57'815.4
2018-Apr-13 08:30N 37°42' W 122°49'612.6
2018-Apr-13 08:00N 37°44' W 122°42'4 7.3
2018-Apr-13 07:30N 37°46' W 122°38'713.4
2018-Apr-13 07:00N 37°49' W 122°30'510.7
2018-Apr-13 06:30N 37°53' W 122°25'612.2
2018-Apr-13 06:00N 37°59' W 122°26'612.2
2018-Apr-13 05:30N 38°03' W 122°20'4 8.9
2018-Apr-13 05:00N 38°04' W 122°15'4 7.3
2018-Apr-13 04:29N 38°02' W 122°10'2 2.9
2018-Apr-13 03:57N 38°02' W 122°08'0 0.0
2018-Apr-13 03:27N 38°02' W 122°08'0 0.0
2018-Apr-13 02:57N 38°02' W 122°08'0 0.0
2018-Apr-13 02:15N 38°02' W 122°08'0 0.0
2018-Apr-13 01:57N 38°02' W 122°08'0 0.0
2018-Apr-12 23:27N 38°02' W 122°08'0 0.0
2018-Apr-12 21:27N 38°02' W 122°08'0 0.0
2018-Apr-12 20:57N 38°02' W 122°08'0 0.0
2018-Apr-12 18:51N 38°02' W 122°08'0 0.0
2018-Apr-12 18:27N 38°02' W 122°08'0 0.0
2018-Apr-12 17:57N 38°02' W 122°08'0 0.0
2018-Apr-12 14:09N 38°02' W 122°08'0 0.0
2018-Apr-12 13:51N 38°02' W 122°08'0 0.0
2018-Apr-12 13:27N 38°02' W 122°08'0 0.0
2018-Apr-12 12:57N 38°02' W 122°08'0 0.0
2018-Apr-12 12:21N 38°02' W 122°08'0 0.0
2018-Apr-12 11:57N 38°02' W 122°08'0 0.0
2018-Apr-12 11:27N 38°02' W 122°08'0 0.0
2018-Apr-12 10:57N 38°02' W 122°08'0 0.0
2018-Apr-12 10:27N 38°02' W 122°08'0 0.0
2018-Apr-12 09:27N 38°02' W 122°08'0 0.0
2018-Apr-12 08:15N 38°02' W 122°08'0 0.0
2018-Apr-12 07:57N 38°02' W 122°08'0 0.0
2018-Apr-12 07:21N 38°02' W 122°08'0 0.0
2018-Apr-12 06:51N 38°02' W 122°08'0 0.1
2018-Apr-12 06:31N 38°02' W 122°08'1 1.7
2018-Apr-12 06:00N 38°02' W 122°09'510.6
2018-Apr-12 05:31N 38°04' W 122°15'815.1
2018-Apr-12 05:00N 38°01' W 122°24'714.4
2018-Apr-12 04:30N 37°54' W 122°26'4 8.1
2018-Apr-12 04:00N 37°50' W 122°28'713.8
2018-Apr-12 03:30N 37°47' W 122°35'5 9.6
2018-Apr-12 03:00N 37°43' W 122°40'5 9.5
2018-Apr-12 02:30N 37°39' W 122°40'510.0
2018-Apr-12 02:01N 37°34' W 122°40'510.0
2018-Apr-12 01:30N 37°29' W 122°40'611.1
2018-Apr-12 01:00N 37°23' W 122°40'611.1
2018-Apr-12 00:30N 37°18' W 122°40'612.1
2018-Apr-12 00:00N 37°12' W 122°38'713.8
2018-Apr-11 23:30N 37°05' W 122°36'713.0
2018-Apr-11 23:00N 36°59' W 122°34'713.0
2018-Apr-11 22:30N 36°53' W 122°31'4412.6
2018-Apr-11 19:01N 36°12' W 122°10'0 9.5
2018-Apr-11 18:59N 36°12' W 122°09'3 6.4
2018-Apr-11 18:29N 36°09' W 122°08'612.6
2018-Apr-11 18:00N 36°04' W 122°04'713.5
2018-Apr-11 17:30N 35°58' W 121°60'3814.5
2018-Apr-11 14:51N 35°25' W 121°35'515.5
2018-Apr-11 14:30N 35°20' W 121°32'815.6
2018-Apr-11 14:00N 35°14' W 121°27'815.8
2018-Apr-11 13:30N 35°07' W 121°22'815.9
2018-Apr-11 13:00N 35°00' W 121°17'816.2
2018-Apr-11 12:30N 34°53' W 121°12'916.1
2018-Apr-11 11:58N 34°46' W 121°06'716.1
2018-Apr-11 11:30N 34°40' W 121°02'816.4
2018-Apr-11 11:00N 34°32' W 120°57'815.1
2018-Apr-11 10:28N 34°26' W 120°51'816.8
2018-Apr-11 09:59N 34°24' W 120°41'816.9
2018-Apr-11 09:30N 34°22' W 120°32'816.4
2018-Apr-11 09:00N 34°19' W 120°22'816.8
2018-Apr-11 08:30N 34°17' W 120°12'916.8
2018-Apr-11 07:58N 34°15' W 120°02'716.5
2018-Apr-11 07:30N 34°13' W 119°53'816.4
2018-Apr-11 07:00N 34°11' W 119°43'816.7
2018-Apr-11 06:30N 34°08' W 119°34'816.3
2018-Apr-11 06:00N 34°06' W 119°24'916.9
2018-Apr-11 05:28N 34°04' W 119°14'816.7
2018-Apr-11 05:00N 33°60' W 119°06'712.5
2018-Apr-11 04:29N 33°56' W 118°59'611.9
2018-Apr-11 04:00N 33°54' W 118°53'612.0
2018-Apr-11 03:30N 33°51' W 118°46'612.0
2018-Apr-11 03:00N 33°48' W 118°40'612.3
2018-Apr-11 02:30N 33°45' W 118°34'612.0
2018-Apr-11 02:00N 33°42' W 118°28'611.7
2018-Apr-11 01:30N 33°39' W 118°21'510.4
2018-Apr-11 01:00N 33°38' W 118°15'5 9.3
2018-Apr-11 00:30N 33°41' W 118°11'4 7.3
2018-Apr-11 00:00N 33°45' W 118°13'2 3.2
2018-Apr-10 23:30N 33°46' W 118°13'0 0.1
2018-Apr-10 22:59N 33°46' W 118°13'0 0.0
2018-Apr-10 22:29N 33°46' W 118°13'0 0.0
2018-Apr-10 21:59N 33°46' W 118°13'0 0.0
2018-Apr-10 21:29N 33°46' W 118°13'0 0.0
2018-Apr-10 20:59N 33°46' W 118°13'0 0.0
2018-Apr-10 20:29N 33°46' W 118°13'0 0.0
2018-Apr-10 19:59N 33°46' W 118°13'0 0.0
2018-Apr-10 19:29N 33°46' W 118°13'0 0.0
2018-Apr-10 18:59N 33°46' W 118°13'0 0.0
2018-Apr-10 18:29N 33°46' W 118°13'0 0.0
2018-Apr-10 17:59N 33°46' W 118°13'0 0.0
2018-Apr-10 17:29N 33°46' W 118°13'0 0.0
2018-Apr-10 16:59N 33°46' W 118°13'0 0.0
2018-Apr-10 16:29N 33°46' W 118°13'0 0.0
2018-Apr-10 15:59N 33°46' W 118°13'0 0.0
2018-Apr-10 15:29N 33°46' W 118°13'0 0.0
2018-Apr-10 14:59N 33°46' W 118°13'0 0.0
2018-Apr-10 14:29N 33°46' W 118°13'0 0.0
2018-Apr-10 13:59N 33°46' W 118°13'0 0.0
2018-Apr-10 13:29N 33°46' W 118°13'0 0.0
2018-Apr-10 12:59N 33°46' W 118°13'0 0.0
2018-Apr-10 12:29N 33°46' W 118°13'0 0.0
2018-Apr-10 11:59N 33°46' W 118°13'0 0.0
2018-Apr-10 11:29N 33°46' W 118°13'0 0.0
2018-Apr-10 10:59N 33°46' W 118°13'0 0.0
2018-Apr-10 10:29N 33°46' W 118°13'0 0.0
2018-Apr-10 09:59N 33°46' W 118°13'0 0.0
2018-Apr-10 09:29N 33°46' W 118°13'0 0.0
2018-Apr-10 08:59N 33°46' W 118°13'0 0.0
2018-Apr-10 08:29N 33°46' W 118°13'0 0.0
2018-Apr-10 07:59N 33°46' W 118°13'0 0.0
2018-Apr-10 07:29N 33°46' W 118°13'0 0.4
2018-Apr-10 07:00N 33°46' W 118°13'1 2.3
2018-Apr-10 06:30N 33°45' W 118°13'4 7.6
2018-Apr-10 06:00N 33°42' W 118°11'4 8.5
2018-Apr-10 05:30N 33°38' W 118°12'3 6.3
2018-Apr-10 05:00N 33°36' W 118°16'3 5.4
2018-Apr-10 04:30N 33°36' W 118°19'3 5.5
2018-Apr-10 04:00N 33°37' W 118°22'3 5.7
2018-Apr-10 03:30N 33°38' W 118°25'3 5.8
2018-Apr-10 03:00N 33°40' W 118°28'3 6.1
2018-Apr-10 02:30N 33°41' W 118°31'3 6.7
2018-Apr-10 02:00N 33°43' W 118°35'3 6.6
2018-Apr-10 01:30N 33°44' W 118°38'3 5.2
2018-Apr-10 01:00N 33°45' W 118°41'3 5.4
2018-Apr-10 00:30N 33°45' W 118°45'3 5.2
2018-Apr-09 23:58N 33°45' W 118°48'3 5.4
2018-Apr-09 23:30N 33°45' W 118°51'3 5.3
2018-Apr-09 23:00N 33°45' W 118°54'3 5.5
2018-Apr-09 22:30N 33°44' W 118°57'3 5.5
2018-Apr-09 22:00N 33°44' W 119°01'3 5.5
2018-Apr-09 21:30N 33°44' W 119°04'3 5.7
2018-Apr-09 21:00N 33°44' W 119°07'3 6.2
2018-Apr-09 20:30N 33°43' W 119°11'3 4.8
2018-Apr-09 19:58N 33°43' W 119°14'4 7.7
2018-Apr-09 19:27N 33°42' W 119°19'4 7.8
2018-Apr-09 18:59N 33°42' W 119°23'4 7.7
2018-Apr-09 18:30N 33°41' W 119°28'4 7.7
2018-Apr-09 17:57N 33°41' W 119°33'3 7.4
2018-Apr-09 17:30N 33°40' W 119°37'4 7.3
2018-Apr-09 17:00N 33°40' W 119°41'4 8.2
2018-Apr-09 16:30N 33°39' W 119°46'510.2
2018-Apr-09 15:59N 33°38' W 119°52'511.1
2018-Apr-09 15:30N 33°37' W 119°58'713.5
2018-Apr-09 15:00N 33°36' W 120°06'815.6
2018-Apr-09 14:30N 33°36' W 120°16'815.4
2018-Apr-09 14:00N 33°36' W 120°25'815.4
2018-Apr-09 13:30N 33°36' W 120°34'815.2
2018-Apr-09 13:00N 33°36' W 120°43'715.0
2018-Apr-09 12:30N 33°36' W 120°52'714.4
2018-Apr-09 12:00N 33°36' W 121°01'714.6
2018-Apr-09 11:30N 33°36' W 121°10'714.9
2018-Apr-09 11:00N 33°36' W 121°19'714.6
2018-Apr-09 10:29N 33°36' W 121°28'714.4
2018-Apr-09 10:00N 33°36' W 121°36'714.0
2018-Apr-09 09:31N 33°36' W 121°44'714.2
2018-Apr-09 08:59N 33°36' W 121°53'714.4
2018-Apr-09 08:30N 33°37' W 122°02'714.2
2018-Apr-09 08:00N 33°37' W 122°10'714.3
2018-Apr-09 07:30N 33°37' W 122°19'714.6
2018-Apr-09 07:00N 33°37' W 122°27'914.7
2018-Apr-09 06:25N 33°37' W 122°38'614.5
2018-Apr-09 06:00N 33°37' W 122°45'714.6
2018-Apr-09 05:30N 33°37' W 122°54'  

Dump ship's entire track history